Time;durP1;ratioP1;P1;durP2;ratioP2;P2;SDS_P1;SDS_P2;PMS_P1;PMS_P2;Temp;Humidity;BMP_temperature;BMP_pressure;BME280_temperature;BME280_humidity;BME280_pressure;Samples;Min_cycle;Max_cycle;Signal;HPM_P1;HPM_P2
2022/05/15 00:00:41;;;;;;;5.83;1.77;;;24.20;41.90;;;;;;5038416;28;91808;-66
2022/05/15 00:03:14;;;;;;;5.67;1.73;;;24.10;41.90;;;;;;5039984;27;88309;-66
2022/05/15 00:05:42;;;;;;;7.40;1.53;;;24.00;41.90;;;;;;5051912;27;89507;-66
2022/05/15 00:08:10;;;;;;;6.87;1.80;;;24.00;42.00;;;;;;5040548;28;90178;-66
2022/05/15 00:10:39;;;;;;;6.20;1.90;;;24.00;42.00;;;;;;5039239;27;88800;-67
2022/05/15 00:13:09;;;;;;;3.87;1.70;;;23.90;42.00;;;;;;5040733;27;88159;-67
2022/05/15 00:15:38;;;;;;;7.67;1.93;;;23.90;42.00;;;;;;5039817;27;90144;-67
2022/05/15 00:18:06;;;;;;;4.27;1.87;;;23.80;42.00;;;;;;5041073;28;90630;-67
2022/05/15 00:20:34;;;;;;;8.97;2.17;;;23.80;42.10;;;;;;5046591;27;89976;-68
2022/05/15 00:23:02;;;;;;;7.17;2.10;;;23.80;42.20;;;;;;5037835;27;88800;-67
2022/05/15 00:25:30;;;;;;;3.30;1.97;;;23.80;42.20;;;;;;5040708;28;90712;-69
2022/05/15 00:27:59;;;;;;;5.80;1.87;;;23.80;42.20;;;;;;5054122;27;89541;-67
2022/05/15 00:30:28;;;;;;;7.73;1.80;;;23.80;42.20;;;;;;5039908;27;88671;-67
2022/05/15 00:32:56;;;;;;;3.33;1.43;;;23.70;42.80;;;;;;5039505;27;89202;-67
2022/05/15 00:35:24;;;;;;;6.80;1.73;;;23.70;42.20;;;;;;5038839;27;89588;-67
2022/05/15 00:37:52;;;;;;;12.07;2.40;;;23.70;42.30;;;;;;5040612;28;90276;-67
2022/05/15 00:40:21;;;;;;;5.93;2.27;;;23.60;42.20;;;;;;5040443;27;88542;-67
2022/05/15 00:42:49;;;;;;;4.13;1.97;;;23.60;42.20;;;;;;5038638;28;88383;-67
2022/05/15 00:45:20;;;;;;;9.40;1.87;;;23.60;42.90;;;;;;5040038;27;90522;-67
2022/05/15 00:47:49;;;;;;;8.00;2.13;;;23.60;42.30;;;;;;5037987;28;89632;-67
2022/05/15 00:50:20;;;;;;;5.87;2.17;;;23.60;42.30;;;;;;5039704;27;89613;-67
2022/05/15 00:52:50;;;;;;;4.87;1.70;;;23.60;42.30;;;;;;5037337;28;88566;-67
2022/05/15 00:55:20;;;;;;;10.57;2.53;;;23.60;42.30;;;;;;5038413;28;90803;-67
2022/05/15 00:57:50;;;;;;;7.97;1.87;;;23.60;42.30;;;;;;5037256;28;89147;-67
2022/05/15 01:00:19;;;;;;;7.60;2.00;;;23.60;42.30;;;;;;5039406;28;89747;-68
2022/05/15 01:02:49;;;;;;;6.97;1.73;;;23.50;42.90;;;;;;5039403;27;88590;-67
2022/05/15 01:05:18;;;;;;;5.17;1.93;;;23.60;42.30;;;;;;5040126;27;89460;-67
2022/05/15 01:07:46;;;;;;;12.40;2.03;;;23.60;42.30;;;;;;5039227;27;90011;-67
2022/05/15 01:10:14;;;;;;;5.13;1.60;;;23.60;42.40;;;;;;5039918;28;90986;-67
2022/05/15 01:12:43;;;;;;;3.17;1.73;;;23.50;42.40;;;;;;5045632;27;88613;-67
2022/05/15 01:15:12;;;;;;;5.93;2.27;;;23.60;42.40;;;;;;5057811;27;89514;-67
2022/05/15 01:17:41;;;;;;;5.00;1.80;;;23.60;42.40;;;;;;5038656;28;90200;-67
2022/05/15 01:20:12;;;;;;;12.50;1.80;;;23.60;42.40;;;;;;5039413;28;91044;-67
2022/05/15 01:22:42;;;;;;;4.90;1.63;;;23.60;42.40;;;;;;5038683;27;88483;-67
2022/05/15 01:25:13;;;;;;;5.47;1.83;;;23.60;42.40;;;;;;5039200;28;89324;-67
2022/05/15 01:27:41;;;;;;;4.83;1.60;;;23.60;42.30;;;;;;5038351;27;88678;-67
2022/05/15 01:30:10;;;;;;;6.00;2.03;;;23.50;42.30;;;;;;5037580;27;88552;-67
2022/05/15 01:32:39;;;;;;;9.37;2.60;;;23.50;42.30;;;;;;5038687;27;89757;-67
2022/05/15 01:35:08;;;;;;;6.37;1.90;;;23.50;42.40;;;;;;5038993;27;88737;-67
2022/05/15 01:37:36;;;;;;;3.90;1.53;;;23.50;42.40;;;;;;5038736;27;88511;-67
2022/05/15 01:40:08;;;;;;;7.07;1.33;;;23.50;42.40;;;;;;5038614;27;88464;-67
2022/05/15 01:42:36;;;;;;;6.67;1.67;;;23.50;42.40;;;;;;5038854;27;88621;-67
2022/05/15 01:45:05;;;;;;;5.27;1.70;;;23.40;42.30;;;;;;5039471;27;89816;-67
2022/05/15 01:47:33;;;;;;;8.13;2.30;;;23.40;42.40;;;;;;5042025;27;90378;-67
2022/05/15 01:50:01;;;;;;;6.33;2.37;;;23.40;42.40;;;;;;5039104;28;92015;-67
2022/05/15 01:52:29;;;;;;;7.87;2.23;;;23.40;42.40;;;;;;5036917;28;88419;-67
2022/05/15 01:54:57;;;;;;;9.33;2.20;;;23.40;42.40;;;;;;5037534;27;88583;-67
2022/05/15 01:57:26;;;;;;;5.67;1.37;;;23.30;42.40;;;;;;5057019;27;90091;-67
2022/05/15 01:59:54;;;;;;;8.10;2.10;;;23.30;42.50;;;;;;5038184;28;90597;-67
2022/05/15 02:02:23;;;;;;;4.17;1.60;;;23.30;42.50;;;;;;5038855;27;88695;-67
2022/05/15 02:04:51;;;;;;;7.20;1.37;;;23.30;42.50;;;;;;5041896;27;92954;-67
2022/05/15 02:07:19;;;;;;;6.00;2.00;;;23.30;42.50;;;;;;5039444;27;90072;-67
2022/05/15 02:09:47;;;;;;;4.87;2.10;;;23.30;42.50;;;;;;5037485;27;90033;-67
2022/05/15 02:12:15;;;;;;;5.40;2.13;;;23.20;42.40;;;;;;5038850;27;88640;-67
2022/05/15 02:14:45;;;;;;;6.53;1.50;;;23.20;42.50;;;;;;5039011;28;90942;-67
2022/05/15 02:17:12;;;;;;;3.03;1.47;;;23.20;42.50;;;;;;5039170;28;91264;-67
2022/05/15 02:19:40;;;;;;;6.13;1.83;;;23.20;42.50;;;;;;5037326;28;88555;-67
2022/05/15 02:22:12;;;;;;;6.27;2.07;;;23.20;42.50;;;;;;5039186;28;88669;-67
2022/05/15 02:24:40;;;;;;;8.60;1.90;;;23.30;42.60;;;;;;5038107;28;92654;-67
2022/05/15 02:27:08;;;;;;;6.23;1.90;;;23.20;42.50;;;;;;5058682;27;90173;-67
2022/05/15 02:29:36;;;;;;;9.07;2.30;;;23.20;42.50;;;;;;5051333;27;90840;-67
2022/05/15 02:32:06;;;;;;;4.73;1.47;;;23.20;42.50;;;;;;5037475;28;88591;-67
2022/05/15 02:34:34;;;;;;;7.20;2.13;;;23.20;42.50;;;;;;5038905;27;91053;-67
2022/05/15 02:37:02;;;;;;;9.33;2.03;;;23.30;42.60;;;;;;5037890;27;89993;-67
2022/05/15 02:39:30;;;;;;;8.00;1.90;;;23.30;42.60;;;;;;5033997;28;89781;-67
2022/05/15 02:42:01;;;;;;;5.70;1.60;;;23.30;42.60;;;;;;5039132;28;88489;-67
2022/05/15 02:44:29;;;;;;;5.67;1.60;;;23.30;42.60;;;;;;5036493;28;90674;-67
2022/05/15 02:46:57;;;;;;;7.30;1.77;;;23.30;42.50;;;;;;5038908;28;90017;-67
2022/05/15 02:52:12;;;;;;;3.37;1.47;;;23.30;42.50;;;;;;5037557;27;88591;-67
2022/05/15 02:54:40;;;;;;;3.57;1.50;;;23.30;42.50;;;;;;5036907;27;89508;-67
2022/05/15 02:57:08;;;;;;;6.47;2.13;;;23.30;42.50;;;;;;5038059;28;89917;-67
2022/05/15 02:59:37;;;;;;;9.17;2.10;;;23.30;42.60;;;;;;5039570;27;88967;-67
2022/05/15 03:02:05;;;;;;;3.93;1.57;;;23.20;42.50;;;;;;5041826;28;88528;-67
2022/05/15 03:04:36;;;;;;;6.47;2.17;;;23.20;43.20;;;;;;5040217;28;93333;-67
2022/05/15 03:07:05;;;;;;;8.60;2.00;;;23.10;42.60;;;;;;5041800;27;92470;-67
2022/05/15 03:09:33;;;;;;;8.37;1.80;;;23.10;42.60;;;;;;5042051;27;88930;-67
2022/05/15 03:12:01;;;;;;;9.23;1.93;;;23.10;42.60;;;;;;5041506;27;88616;-68
2022/05/15 03:14:30;;;;;;;4.40;1.67;;;23.10;42.60;;;;;;5041226;28;90578;-67
2022/05/15 03:16:58;;;;;;;4.40;1.53;;;23.10;42.60;;;;;;5044081;27;89077;-67
2022/05/15 03:19:26;;;;;;;6.67;2.20;;;23.10;42.60;;;;;;5055652;27;88841;-67
2022/05/15 03:21:56;;;;;;;8.00;1.40;;;23.10;42.60;;;;;;5042013;28;88441;-67
2022/05/15 03:24:23;;;;;;;7.13;1.60;;;23.10;42.60;;;;;;5040879;28;90132;-67
2022/05/15 03:26:52;;;;;;;5.33;2.23;;;23.10;42.60;;;;;;5048258;27;89084;-67
2022/05/15 03:29:20;;;;;;;5.87;1.53;;;23.10;42.60;;;;;;5057648;27;89220;-68
2022/05/15 03:31:48;;;;;;;5.87;2.37;;;23.10;42.60;;;;;;5041411;28;88668;-67
2022/05/15 03:34:17;;;;;;;7.77;1.77;;;23.10;42.60;;;;;;5037785;27;90125;-67
2022/05/15 03:36:46;;;;;;;10.10;1.77;;;23.20;42.60;;;;;;5038211;27;90130;-67
2022/05/15 03:39:16;;;;;;;4.17;1.77;;;23.20;42.60;;;;;;5039912;27;89021;-67
2022/05/15 03:41:44;;;;;;;4.47;1.50;;;23.10;42.50;;;;;;5049689;27;88647;-67
2022/05/15 03:44:12;;;;;;;6.17;1.53;;;23.10;42.50;;;;;;5061670;27;92586;-67
2022/05/15 03:46:40;;;;;;;5.93;1.87;;;23.10;42.50;;;;;;5040640;27;91081;-67
2022/05/15 03:49:09;;;;;;;7.10;1.57;;;23.10;42.70;;;;;;5038599;28;88328;-67
2022/05/15 03:51:37;;;;;;;6.33;2.37;;;23.10;42.60;;;;;;5046811;27;88627;-67
2022/05/15 03:54:05;;;;;;;7.03;2.03;;;23.10;42.60;;;;;;5041514;27;92154;-67
2022/05/15 03:56:52;;;;;;;6.07;1.87;;;23.00;42.50;;;;;;5040071;27;89438;-67
2022/05/15 03:59:22;;;;;;;6.07;2.00;;;23.00;42.50;;;;;;5038929;28;89374;-67
2022/05/15 04:01:50;;;;;;;5.73;1.57;;;23.00;42.50;;;;;;5043272;27;88589;-67
2022/05/15 04:04:18;;;;;;;5.10;2.30;;;23.00;42.50;;;;;;5040779;28;90246;-67
2022/05/15 04:06:46;;;;;;;9.07;2.23;;;23.00;42.50;;;;;;5040734;28;89263;-67
2022/05/15 04:09:14;;;;;;;4.87;1.60;;;23.00;42.50;;;;;;5038543;27;88436;-67
2022/05/15 04:11:44;;;;;;;4.70;1.60;;;23.00;42.60;;;;;;5040769;28;88480;-67
2022/05/15 04:14:11;;;;;;;4.73;1.13;;;23.00;42.50;;;;;;5040557;27;89761;-67
2022/05/15 04:16:39;;;;;;;4.10;1.97;;;23.00;42.50;;;;;;5040729;27;89959;-67
2022/05/15 04:19:08;;;;;;;6.03;2.00;;;23.00;42.60;;;;;;5040003;27;89720;-67
2022/05/15 04:21:37;;;;;;;5.57;2.00;;;23.00;42.60;;;;;;5041924;27;88452;-67
2022/05/15 04:24:06;;;;;;;5.57;1.60;;;23.00;42.50;;;;;;5038815;27;90849;-66
2022/05/15 04:26:34;;;;;;;7.53;1.90;;;23.00;42.50;;;;;;5025342;28;90162;-66
2022/05/15 04:29:04;;;;;;;4.53;2.00;;;23.00;42.50;;;;;;5023453;28;90088;-77
2022/05/15 04:31:33;;;;;;;3.97;1.53;;;23.10;42.60;;;;;;5030074;28;88504;-68
2022/05/15 04:34:02;;;;;;;5.63;1.97;;;23.20;42.60;;;;;;5039486;28;91683;-67
2022/05/15 04:36:33;;;;;;;7.10;1.50;;;23.40;42.60;;;;;;5035043;27;91004;-68
2022/05/15 04:39:02;;;;;;;11.20;2.20;;;23.80;42.40;;;;;;5039229;27;89540;-67
2022/05/15 04:41:30;;;;;;;3.20;1.47;;;24.10;42.30;;;;;;5038519;27;88717;-67
2022/05/15 04:43:58;;;;;;;6.60;1.70;;;24.20;42.20;;;;;;5038019;28;89698;-68
2022/05/15 04:46:29;;;;;;;4.53;1.60;;;24.30;42.80;;;;;;5040275;27;92973;-68
2022/05/15 04:48:57;;;;;;;4.10;1.90;;;24.30;42.10;;;;;;5037498;28;89221;-67
2022/05/15 04:51:25;;;;;;;3.57;1.50;;;24.40;42.10;;;;;;5040487;27;88289;-67
2022/05/15 04:53:54;;;;;;;4.20;2.10;;;24.30;42.10;;;;;;5039855;28;88593;-67
2022/05/15 04:56:22;;;;;;;6.33;1.80;;;24.30;42.10;;;;;;5044661;27;89958;-67
2022/05/15 04:58:49;;;;;;;5.70;1.33;;;24.20;42.10;;;;;;5041320;27;89237;-67
2022/05/15 05:01:18;;;;;;;3.17;1.50;;;24.20;42.10;;;;;;5039442;27;88588;-68
2022/05/15 05:03:47;;;;;;;10.60;2.33;;;24.20;42.20;;;;;;5040753;27;92141;-67
2022/05/15 05:06:16;;;;;;;5.50;1.70;;;24.20;42.20;;;;;;5040231;27;90812;-67
2022/05/15 05:08:44;;;;;;;6.90;2.80;;;24.20;42.20;;;;;;5039261;27;89649;-67
2022/05/15 05:11:12;;;;;;;9.60;2.57;;;24.10;42.10;;;;;;5037786;28;90080;-67
2022/05/15 05:13:40;;;;;;;10.07;2.67;;;24.10;42.10;;;;;;5045472;27;90180;-67
2022/05/15 05:16:08;;;;;;;4.87;1.57;;;24.10;42.10;;;;;;5053504;27;88990;-67
2022/05/15 05:18:37;;;;;;;4.40;1.33;;;24.00;42.10;;;;;;5038913;27;88912;-67
2022/05/15 05:21:20;;;;;;;4.63;1.67;;;24.00;42.00;;;;;;5067765;27;89375;-67
2022/05/15 05:23:48;;;;;;;5.33;2.10;;;24.00;42.10;;;;;;5063481;27;88411;-67
2022/05/15 05:26:16;;;;;;;4.57;1.33;;;23.90;42.00;;;;;;5062086;27;88434;-67
2022/05/15 05:28:45;;;;;;;7.37;1.60;;;24.00;42.10;;;;;;5059393;27;90558;-67
2022/05/15 05:31:13;;;;;;;8.40;2.20;;;24.00;42.10;;;;;;5061233;27;88854;-67
2022/05/15 05:33:41;;;;;;;5.93;2.07;;;24.00;42.10;;;;;;5061803;27;88511;-66
2022/05/15 05:36:09;;;;;;;6.13;2.10;;;24.00;42.10;;;;;;5054485;27;88669;-66
2022/05/15 05:38:40;;;;;;;9.87;2.27;;;24.00;42.10;;;;;;5059453;27;90678;-66
2022/05/15 05:41:08;;;;;;;6.20;1.73;;;23.90;42.00;;;;;;5059457;27;89432;-66
2022/05/15 05:43:36;;;;;;;4.10;1.70;;;23.90;42.00;;;;;;5057150;27;88326;-67
2022/05/15 05:46:04;;;;;;;5.33;1.63;;;23.90;42.00;;;;;;5058248;27;88276;-68
2022/05/15 05:48:32;;;;;;;5.43;2.00;;;23.90;42.00;;;;;;5055747;27;91117;-69
2022/05/15 05:51:01;;;;;;;5.97;1.70;;;23.80;42.00;;;;;;5061010;27;89034;-69
2022/05/15 05:53:29;;;;;;;5.93;1.60;;;23.80;42.00;;;;;;5058748;27;88675;-66
2022/05/15 05:55:58;;;;;;;10.13;2.10;;;23.80;42.00;;;;;;5056372;27;88621;-70
2022/05/15 05:58:26;;;;;;;5.57;2.13;;;23.80;42.10;;;;;;5058242;27;89480;-69
2022/05/15 06:00:54;;;;;;;8.63;1.93;;;23.80;42.00;;;;;;5058076;27;91604;-70
2022/05/15 06:06:08;;;;;;;10.00;2.33;;;23.80;42.00;;;;;;5057290;27;88483;-66
2022/05/15 06:08:36;;;;;;;10.90;2.27;;;23.80;42.00;;;;;;5058566;27;89724;-66
2022/05/15 06:11:05;;;;;;;4.07;1.73;;;23.80;42.00;;;;;;5055584;27;89897;-66
2022/05/15 06:13:33;;;;;;;4.67;1.93;;;23.80;42.00;;;;;;5057049;27;88506;-68
2022/05/15 06:16:01;;;;;;;8.37;2.43;;;23.80;42.10;;;;;;5057507;27;88615;-67
2022/05/15 06:18:31;;;;;;;4.37;2.10;;;23.70;42.00;;;;;;5049932;27;90613;-67
2022/05/15 06:20:59;;;;;;;3.93;1.97;;;23.60;42.00;;;;;;5050430;27;90018;-67
2022/05/15 06:23:27;;;;;;;5.37;2.43;;;23.50;42.00;;;;;;5044769;27;88494;-67
2022/05/15 06:25:55;;;;;;;4.33;2.20;;;23.50;42.10;;;;;;5049183;27;88400;-67
2022/05/15 06:28:29;;;;;;;3.60;1.77;;;23.50;42.20;;;;;;5056467;27;90597;-67
2022/05/15 06:30:57;;;;;;;5.07;1.93;;;23.50;42.80;;;;;;5048287;27;90053;-68
2022/05/15 06:33:25;;;;;;;5.53;1.97;;;23.50;42.10;;;;;;5028354;27;88544;-67
2022/05/15 06:35:53;;;;;;;8.33;2.20;;;23.50;42.10;;;;;;5036627;28;88933;-68
2022/05/15 06:38:21;;;;;;;6.60;2.07;;;23.50;42.20;;;;;;5029977;28;91071;-68
2022/05/15 06:40:49;;;;;;;5.80;2.07;;;23.50;42.20;;;;;;5029039;27;89829;-71
2022/05/15 06:43:18;;;;;;;7.40;2.07;;;23.50;42.30;;;;;;5036978;28;88834;-71
2022/05/15 06:45:48;;;;;;;7.10;1.97;;;23.50;42.30;;;;;;5039178;28;88452;-71
2022/05/15 06:48:16;;;;;;;6.93;2.33;;;23.50;42.30;;;;;;5025047;28;92588;-71
2022/05/15 06:50:44;;;;;;;11.60;2.50;;;23.50;42.40;;;;;;5040188;27;90120;-68
2022/05/15 06:53:13;;;;;;;4.73;1.97;;;23.50;42.40;;;;;;5036503;27;88369;-68
2022/05/15 06:57:28;;;;;;;11.30;2.53;;;23.50;42.40;;;;;;5025736;28;88460;-68
2022/05/15 06:58:29;;;;;;;7.23;2.20;;;23.50;42.40;;;;;;5028508;28;89343;-68
2022/05/15 07:00:58;;;;;;;6.47;1.87;;;23.50;42.40;;;;;;5043070;28;91668;-69
2022/05/15 07:03:27;;;;;;;5.47;1.87;;;23.40;42.40;;;;;;5043157;27;88558;-68
2022/05/15 07:05:55;;;;;;;7.73;2.43;;;23.40;42.50;;;;;;5041159;28;88526;-69
2022/05/15 07:08:23;;;;;;;7.63;2.50;;;23.50;42.60;;;;;;5033780;28;90938;-68
2022/05/15 07:10:51;;;;;;;5.03;2.00;;;23.50;42.60;;;;;;5035845;27;89825;-71
2022/05/15 07:13:20;;;;;;;5.47;1.87;;;23.50;42.60;;;;;;5026417;28;88419;-68
2022/05/15 07:15:50;;;;;;;15.27;2.47;;;23.50;42.50;;;;;;5042570;28;88595;-69
2022/05/15 07:18:23;;;;;;;6.27;2.00;;;23.50;42.60;;;;;;5038198;27;92231;-70
2022/05/15 07:20:51;;;;;;;5.60;2.80;;;23.50;42.60;;;;;;5029333;27;90111;-71
2022/05/15 15:03:57;;;;;;;2.37;1.40;;;24.00;40.90;;;;;;4986429;28;88505;-74
2022/05/15 15:06:25;;;;;;;3.67;1.63;;;24.10;41.30;;;;;;4959499;28;90059;-75
2022/05/15 15:08:53;;;;;;;1.70;1.30;;;24.60;41.10;;;;;;4979051;28;88877;-75
2022/05/15 15:11:23;;;;;;;5.60;1.60;;;25.10;40.70;;;;;;4969022;28;89577;-74
2022/05/15 15:13:54;;;;;;;1.40;1.20;;;25.40;40.70;;;;;;4957326;28;92344;-73
2022/05/15 15:16:23;;;;;;;7.30;1.70;;;25.80;39.70;;;;;;4957893;28;88287;-70
2022/05/15 15:18:53;;;;;;;3.70;1.70;;;26.00;39.40;;;;;;4950598;28;88352;-71
2022/05/15 15:21:22;;;;;;;1.87;1.40;;;26.20;39.00;;;;;;4938645;28;90242;-71
2022/05/15 15:23:50;;;;;;;2.90;1.50;;;26.40;38.60;;;;;;4947593;28;90068;-74
2022/05/15 15:26:18;;;;;;;2.70;1.47;;;26.40;38.30;;;;;;4946948;28;88352;-75
2022/05/15 15:28:47;;;;;;;4.57;1.33;;;26.40;37.80;;;;;;4938326;28;88573;-74
2022/05/15 15:31:15;;;;;;;2.67;1.30;;;26.50;37.60;;;;;;4938986;28;90649;-73
2022/05/15 15:33:43;;;;;;;2.77;1.50;;;26.60;37.30;;;;;;4939679;28;91645;-74
2022/05/15 15:36:11;;;;;;;5.37;1.60;;;26.60;37.00;;;;;;4948260;28;88466;-74
2022/05/15 15:38:41;;;;;;;1.70;1.30;;;26.60;36.80;;;;;;4927208;28;88595;-75
2022/05/15 15:41:11;;;;;;;2.73;1.00;;;26.60;36.70;;;;;;4924101;28;94439;-75
2022/05/15 15:43:40;;;;;;;1.90;1.13;;;26.70;36.60;;;;;;4926155;28;89890;-74
2022/05/15 15:46:10;;;;;;;2.00;1.20;;;26.80;37.30;;;;;;4921942;28;88345;-74
2022/05/15 15:48:39;;;;;;;1.43;1.00;;;26.80;36.40;;;;;;4927711;28;90269;-74
2022/05/15 15:51:18;;;;;;;2.20;1.40;;;26.80;36.30;;;;;;4933495;28;90097;-75
2022/05/15 15:53:48;;;;;;;2.57;1.10;;;26.80;36.20;;;;;;4931699;28;89936;-74
2022/05/15 15:56:16;;;;;;;3.30;1.10;;;26.90;36.10;;;;;;4934742;28;88564;-74
2022/05/15 15:58:46;;;;;;;1.37;1.13;;;26.90;36.00;;;;;;4936995;28;88563;-74
2022/05/15 16:01:15;;;;;;;4.23;1.00;;;26.90;35.80;;;;;;4927631;28;91764;-74
2022/05/15 16:03:43;;;;;;;1.43;1.20;;;27.00;35.70;;;;;;4925422;28;88609;-74
2022/05/15 16:06:11;;;;;;;4.93;1.17;;;27.00;35.50;;;;;;4927557;28;88417;-74
2022/05/15 16:08:39;;;;;;;1.30;1.20;;;27.00;35.20;;;;;;4930966;28;88552;-74
2022/05/15 16:11:08;;;;;;;1.90;1.40;;;27.00;35.10;;;;;;4932039;28;90620;-74
2022/05/15 16:13:37;;;;;;;1.07;0.93;;;27.00;35.60;;;;;;4932995;28;91964;-74
2022/05/15 16:16:05;;;;;;;2.97;1.50;;;27.10;34.90;;;;;;4923325;28;88540;-74
2022/05/15 16:18:34;;;;;;;4.53;1.50;;;27.10;34.70;;;;;;4923845;28;88674;-74
2022/05/15 16:21:03;;;;;;;2.10;1.00;;;27.10;35.30;;;;;;4923214;28;90636;-74
2022/05/15 16:23:32;;;;;;;3.07;1.40;;;27.10;34.40;;;;;;4919089;28;91081;-74
2022/05/15 16:26:02;;;;;;;2.00;1.20;;;27.10;34.30;;;;;;4924266;28;90252;-74
2022/05/15 16:28:31;;;;;;;2.27;1.07;;;27.10;34.10;;;;;;4926836;28;89144;-74
2022/05/15 16:31:02;;;;;;;2.97;1.07;;;27.10;33.90;;;;;;4926498;28;89263;-74
2022/05/15 16:33:31;;;;;;;3.53;1.60;;;27.10;33.80;;;;;;4920759;28;91664;-74
2022/05/15 16:35:59;;;;;;;1.10;1.00;;;27.10;33.70;;;;;;4912832;28;88667;-75
2022/05/15 16:38:28;;;;;;;2.17;1.20;;;27.10;33.50;;;;;;4911483;28;88607;-74
2022/05/15 16:40:57;;;;;;;1.90;1.03;;;27.10;33.40;;;;;;4910889;28;89351;-74
2022/05/15 16:43:25;;;;;;;5.50;1.00;;;27.10;33.30;;;;;;4909008;28;93015;-74
2022/05/15 16:45:54;;;;;;;1.17;0.97;;;27.10;33.80;;;;;;4919127;28;88838;-74
2022/05/15 16:48:22;;;;;;;4.33;1.30;;;27.10;32.90;;;;;;4906194;28;88651;-75
2022/05/15 16:50:50;;;;;;;2.97;1.30;;;27.00;32.60;;;;;;4908242;28;89396;-74
2022/05/15 16:53:20;;;;;;;3.63;1.33;;;27.00;32.40;;;;;;4916801;28;88903;-74
2022/05/15 16:55:49;;;;;;;4.50;1.10;;;27.00;32.30;;;;;;4918166;28;89222;-73
2022/05/15 16:58:18;;;;;;;3.40;1.17;;;27.00;32.20;;;;;;4921031;28;88766;-72
2022/05/15 17:00:47;;;;;;;1.53;1.30;;;27.00;32.10;;;;;;4917486;28;90976;-73
2022/05/15 17:03:17;;;;;;;3.50;1.40;;;27.10;32.10;;;;;;4913455;28;88893;-74
2022/05/15 17:05:45;;;;;;;3.20;1.10;;;27.10;32.10;;;;;;4918276;28;88499;-73
2022/05/15 17:08:13;;;;;;;1.20;0.90;;;27.10;31.90;;;;;;4915503;28;89094;-72
2022/05/15 17:10:41;;;;;;;4.80;1.13;;;27.00;31.70;;;;;;4914274;28;90725;-72
2022/05/15 17:13:10;;;;;;;3.93;0.90;;;27.00;31.50;;;;;;4910273;28;89135;-72
2022/05/15 17:15:38;;;;;;;2.53;1.40;;;27.00;31.40;;;;;;4915122;28;88710;-72
2022/05/15 17:18:07;;;;;;;3.20;0.90;;;27.00;31.30;;;;;;4921225;28;88845;-72
2022/05/15 17:20:45;;;;;;;1.80;1.13;;;27.00;31.30;;;;;;4921971;28;90663;-73
2022/05/15 17:23:13;;;;;;;1.63;1.00;;;27.00;31.20;;;;;;4923405;28;88952;-73
2022/05/15 17:25:41;;;;;;;3.80;1.70;;;27.00;31.90;;;;;;4922829;28;88787;-75
2022/05/15 17:28:10;;;;;;;2.63;1.20;;;27.00;31.00;;;;;;4919871;28;88602;-75
2022/05/15 17:36:11;;;;;;;3.93;1.20;;;27.00;30.80;;;;;;4921246;28;88563;-74
2022/05/15 17:38:39;;;;;;;1.43;0.90;;;26.90;30.70;;;;;;4923016;28;88567;-73
2022/05/15 17:41:08;;;;;;;2.33;1.40;;;26.90;31.20;;;;;;4918038;28;90759;-74
2022/05/15 17:43:36;;;;;;;1.67;1.20;;;26.90;30.60;;;;;;4921744;28;90054;-73
2022/05/15 17:46:07;;;;;;;3.43;1.17;;;26.90;30.70;;;;;;4926749;28;90150;-73
2022/05/15 17:48:36;;;;;;;1.40;1.17;;;26.90;30.80;;;;;;4922682;28;89865;-73
2022/05/15 17:51:05;;;;;;;1.23;0.90;;;26.90;30.90;;;;;;4922695;28;90570;-73
2022/05/15 17:53:35;;;;;;;3.10;1.00;;;27.00;31.10;;;;;;4922118;28;88903;-74
2022/05/15 17:56:03;;;;;;;2.63;1.10;;;27.00;31.20;;;;;;4922563;28;88325;-74
2022/05/15 17:58:31;;;;;;;4.13;1.53;;;27.00;31.30;;;;;;4922015;28;88644;-73
2022/05/15 18:00:59;;;;;;;1.03;0.90;;;26.90;31.20;;;;;;4920119;28;90046;-74
2022/05/15 18:03:27;;;;;;;2.30;0.93;;;27.00;31.40;;;;;;4916599;28;92475;-74
2022/05/15 18:05:55;;;;;;;4.47;1.30;;;26.90;31.40;;;;;;4924748;28;88712;-72
2022/05/15 18:08:23;;;;;;;1.90;1.30;;;26.90;31.50;;;;;;4922444;28;88743;-74
2022/05/15 18:10:53;;;;;;;1.67;1.07;;;26.90;31.70;;;;;;4921397;28;92354;-73
2022/05/15 18:13:21;;;;;;;1.10;0.80;;;26.90;31.70;;;;;;4921431;28;90099;-73
2022/05/15 18:15:49;;;;;;;3.27;1.10;;;26.90;31.70;;;;;;4920533;28;89541;-72
2022/05/15 18:18:18;;;;;;;1.13;0.93;;;26.90;32.50;;;;;;4917446;28;89153;-71
2022/05/15 18:20:47;;;;;;;2.27;1.17;;;26.90;31.80;;;;;;4921967;28;91664;-72
2022/05/15 18:23:15;;;;;;;3.30;2.03;;;26.90;31.90;;;;;;4920523;28;89008;-72
2022/05/15 18:25:43;;;;;;;3.83;1.57;;;26.90;32.00;;;;;;4922330;28;88445;-73
2022/05/15 18:28:17;;;;;;;2.13;1.37;;;26.90;32.10;;;;;;4922726;28;88538;-73
2022/05/15 18:30:46;;;;;;;1.03;1.00;;;26.90;32.10;;;;;;4923534;28;93984;-71
2022/05/15 18:33:14;;;;;;;20.07;11.83;;;26.80;32.10;;;;;;4922573;28;89303;-71
2022/05/15 18:35:43;;;;;;;30.40;19.30;;;26.90;32.30;;;;;;4920644;28;88384;-71
2022/05/15 18:38:11;;;;;;;11.57;7.03;;;26.90;32.30;;;;;;4917311;28;88497;-72
2022/05/15 18:40:39;;;;;;;4.83;2.37;;;26.90;32.30;;;;;;4922498;28;89734;-72
2022/05/15 18:43:08;;;;;;;3.73;1.80;;;26.90;32.30;;;;;;4921008;28;89962;-72
2022/05/15 18:45:37;;;;;;;4.10;1.10;;;26.90;32.30;;;;;;4918374;28;88429;-72
2022/05/15 18:48:06;;;;;;;1.50;1.00;;;26.90;32.30;;;;;;4920064;28;88515;-72
2022/05/15 18:56:05;;;;;;;3.37;1.60;;;26.70;32.30;;;;;;4920695;28;89284;-72
2022/05/15 18:58:33;;;;;;;1.33;1.00;;;26.70;32.40;;;;;;4922524;28;88725;-72
2022/05/15 19:01:02;;;;;;;3.70;1.23;;;26.70;32.50;;;;;;4922713;28;90976;-71
2022/05/15 19:03:31;;;;;;;4.23;1.50;;;26.60;32.40;;;;;;4922174;28;90442;-72
2022/05/15 19:06:01;;;;;;;1.93;1.20;;;26.80;32.50;;;;;;4920253;28;88477;-72
2022/05/15 19:08:29;;;;;;;4.67;1.77;;;26.90;32.60;;;;;;4914244;28;89342;-72
2022/05/15 19:10:58;;;;;;;3.90;1.77;;;26.90;32.60;;;;;;4916712;28;90680;-73
2022/05/15 19:13:26;;;;;;;2.10;1.77;;;27.00;32.60;;;;;;4914375;28;88336;-74
2022/05/15 19:15:54;;;;;;;3.20;1.60;;;27.00;32.60;;;;;;4917310;28;88437;-74
2022/05/15 19:18:23;;;;;;;6.03;1.50;;;27.00;32.70;;;;;;4915629;28;90789;-73
2022/05/15 19:20:51;;;;;;;4.37;1.60;;;27.00;32.80;;;;;;4917197;28;90049;-74
2022/05/15 19:23:19;;;;;;;3.90;1.77;;;27.00;32.80;;;;;;4919224;28;89988;-74
2022/05/15 19:25:48;;;;;;;3.93;2.60;;;27.00;33.40;;;;;;4919043;28;89499;-74
2022/05/15 19:28:16;;;;;;;3.10;2.67;;;27.00;32.90;;;;;;4916272;28;88614;-74
2022/05/15 19:30:45;;;;;;;4.77;2.40;;;27.10;32.90;;;;;;4915145;28;88921;-73
2022/05/15 19:33:15;;;;;;;3.93;2.23;;;27.00;32.80;;;;;;4914074;28;90247;-74
2022/05/15 19:35:45;;;;;;;6.53;2.07;;;27.00;32.80;;;;;;4917060;28;88548;-74
2022/05/15 19:38:15;;;;;;;6.27;2.97;;;27.00;32.80;;;;;;4915794;28;88722;-74
2022/05/15 19:40:45;;;;;;;3.37;2.33;;;27.00;32.90;;;;;;4914344;28;90276;-73
2022/05/15 19:43:15;;;;;;;3.90;2.27;;;27.00;32.90;;;;;;4914558;28;89487;-73
2022/05/15 19:45:44;;;;;;;4.17;2.10;;;27.00;32.90;;;;;;4917621;28;88797;-74
2022/05/15 19:48:13;;;;;;;2.87;1.70;;;27.00;32.90;;;;;;4918660;28;88687;-74
2022/05/15 19:50:41;;;;;;;2.47;1.50;;;26.90;32.80;;;;;;4919291;28;89518;-74
2022/05/15 19:53:10;;;;;;;1.67;1.40;;;27.00;32.90;;;;;;4917669;28;89382;-74
2022/05/15 19:55:38;;;;;;;6.00;2.03;;;26.90;32.80;;;;;;4914853;28;88586;-74
2022/05/15 19:58:07;;;;;;;2.87;1.70;;;26.90;32.80;;;;;;4914692;28;88722;-74
2022/05/15 20:00:41;;;;;;;4.23;1.70;;;26.90;32.80;;;;;;4911441;28;90565;-74
2022/05/15 20:03:16;;;;;;;2.77;1.30;;;26.90;32.80;;;;;;4915841;28;92958;-74
2022/05/15 20:11:31;;;;;;;4.73;1.30;;;26.90;32.90;;;;;;4918607;28;90619;-75
2022/05/15 20:13:59;;;;;;;5.57;1.50;;;26.90;32.90;;;;;;4915706;28;88513;-75
2022/05/15 20:16:28;;;;;;;3.87;2.13;;;26.90;33.10;;;;;;4915970;28;88692;-75
2022/05/15 20:18:56;;;;;;;3.67;1.40;;;27.00;33.30;;;;;;4917125;28;88649;-75
2022/05/15 20:21:24;;;;;;;3.73;1.90;;;26.90;33.90;;;;;;4924207;28;90831;-76
2022/05/15 20:23:53;;;;;;;3.87;1.80;;;27.00;33.40;;;;;;4920253;28;92103;-73
2022/05/15 20:26:22;;;;;;;4.93;2.10;;;27.10;33.70;;;;;;4914387;28;88928;-75
2022/05/15 20:28:51;;;;;;;4.70;2.73;;;27.10;33.80;;;;;;4914345;28;88770;-75
2022/05/15 20:31:20;;;;;;;5.17;2.87;;;27.10;34.00;;;;;;4919263;28;90201;-71
2022/05/15 20:33:49;;;;;;;4.73;2.33;;;27.20;34.30;;;;;;4918857;28;88665;-71
2022/05/15 20:36:18;;;;;;;7.68;3.38;;;27.20;34.60;;;;;;4917963;28;88589;-68
2022/05/15 20:38:46;;;;;;;7.83;3.60;;;27.20;34.80;;;;;;4919709;28;88692;-69
2022/05/15 20:41:18;;;;;;;7.20;4.00;;;27.20;34.90;;;;;;4916184;28;90647;-71
2022/05/15 20:43:47;;;;;;;8.70;4.93;;;27.20;35.00;;;;;;4914579;28;92938;-70
2022/05/15 20:46:15;;;;;;;9.93;6.03;;;27.20;35.10;;;;;;4919316;28;88660;-71
2022/05/15 20:48:44;;;;;;;10.73;7.03;;;27.20;35.30;;;;;;4918442;28;88714;-70
2022/05/15 20:51:12;;;;;;;11.13;6.97;;;27.20;35.30;;;;;;4907940;28;94044;-71
2022/05/15 20:53:42;;;;;;;10.40;7.03;;;27.20;35.50;;;;;;4917333;28;88908;-71
2022/05/15 20:56:13;;;;;;;12.50;7.30;;;27.20;35.60;;;;;;4919040;28;88484;-71